In Rescue
 
Open Full Screen Window  High Contrast Mode
Wind Gusting 00 knots
07
January 22, 2020 6:43 PM EST
Weather Information
Wind Direction
  210 °
Wind Speed
  07 kt (8 mph)
Wind Gust
  00 kt (0 mph)
Altimeter
30.07 in
Visibility
10 SM
Temperature
03° C
37° F
Dewpoint
-03° C
27° F
Humidity
65%
Sky Condition
Broken @ 2,900 ft
MVFR

METAR KPZQ 222343Z AUTO 21007KT 10SM BKN029 03/M03 A3007 RMK AO2 T00251030

FAA Disclaimer: The data displayed is for advisory purposes only and is not to be used for flight planning or operations.